CMB4609 KXTA-KADW
Flight info
| Callsign | CMB4609 |
|---|---|
| Flight time | N/A |
| Altitude | 35000 |
| Route | RKEEE MKEEE LMX GHABY PANAC ILC J80 MLF J28 HBU/N0472F370 J28 GCK J110 STL/N0470F390 J110 VHP OPOKE KARYL J30 BUCKO FRDMM6 |
| Aircraft | CL60/M-SBDE1E2E3FGHIJ1J4J5J7M3RWXYZ/LB1V1D1 |
Departure
| Time | N/A |
|---|---|
| Airport | Homey (Area 51) Airport (KXTA) |
Arrival
| Time | 2026-04-26 00:52 |
|---|---|
| Airport | Joint Base Andrews (KADW) |
| Time | Latitude | Longitude | Altitude | Speed | Heading |
|---|---|---|---|---|---|
| 2026-04-25 23:39 | 39.45961 | -87.98459 | 37009 ft | 514 kts | 73° |
| 2026-04-25 23:40 | 39.46970 | -87.94017 | 37022 ft | 514 kts | 73° |
| 2026-04-25 23:40 | 39.49003 | -87.85016 | 36979 ft | 514 kts | 73° |
| 2026-04-25 23:41 | 39.51000 | -87.76152 | 36941 ft | 510 kts | 73° |
| 2026-04-25 23:41 | 39.52967 | -87.67409 | 36965 ft | 506 kts | 73° |
| 2026-04-25 23:42 | 39.54927 | -87.58657 | 36972 ft | 506 kts | 73° |
| 2026-04-25 23:42 | 39.56888 | -87.49871 | 36967 ft | 506 kts | 73° |
| 2026-04-25 23:43 | 39.58852 | -87.41032 | 36965 ft | 507 kts | 73° |
| 2026-04-25 23:43 | 39.60785 | -87.32292 | 36964 ft | 507 kts | 73° |
| 2026-04-25 23:44 | 39.62709 | -87.23564 | 36962 ft | 507 kts | 73° |
| 2026-04-25 23:44 | 39.64642 | -87.14753 | 36965 ft | 508 kts | 73° |
| 2026-04-25 23:45 | 39.66569 | -87.05941 | 36967 ft | 508 kts | 73° |
| 2026-04-25 23:45 | 39.68483 | -86.97147 | 36969 ft | 509 kts | 73° |
| 2026-04-25 23:46 | 39.70399 | -86.88309 | 36970 ft | 509 kts | 73° |
| 2026-04-25 23:46 | 39.72316 | -86.79433 | 36972 ft | 510 kts | 73° |
| 2026-04-25 23:47 | 39.74222 | -86.70571 | 36975 ft | 510 kts | 73° |
| 2026-04-25 23:47 | 39.76129 | -86.61665 | 36974 ft | 510 kts | 73° |
| 2026-04-25 23:48 | 39.78018 | -86.52807 | 36975 ft | 510 kts | 73° |
| 2026-04-25 23:48 | 39.79907 | -86.43914 | 36974 ft | 510 kts | 73° |
| 2026-04-25 23:49 | 39.81529 | -86.35008 | 36969 ft | 511 kts | 82° |
| 2026-04-25 23:49 | 39.82127 | -86.25766 | 36965 ft | 510 kts | 86° |
| 2026-04-25 23:50 | 39.82662 | -86.16601 | 36965 ft | 510 kts | 86° |
| 2026-04-25 23:50 | 39.83191 | -86.07455 | 36965 ft | 511 kts | 86° |
| 2026-04-25 23:51 | 39.83722 | -85.98186 | 36966 ft | 511 kts | 86° |
| 2026-04-25 23:51 | 39.84246 | -85.88947 | 36968 ft | 511 kts | 86° |
| 2026-04-25 23:52 | 39.84763 | -85.79710 | 36969 ft | 511 kts | 86° |
| 2026-04-25 23:52 | 39.85270 | -85.70533 | 36967 ft | 511 kts | 86° |
| 2026-04-25 23:53 | 39.85772 | -85.61338 | 36967 ft | 511 kts | 86° |
| 2026-04-25 23:53 | 39.86267 | -85.52125 | 36972 ft | 511 kts | 86° |
| 2026-04-25 23:54 | 39.86756 | -85.42893 | 36975 ft | 511 kts | 86° |
| 2026-04-25 23:54 | 39.87237 | -85.33678 | 36970 ft | 512 kts | 87° |
| 2026-04-25 23:55 | 39.87710 | -85.24483 | 36966 ft | 512 kts | 87° |
| 2026-04-25 23:55 | 39.88179 | -85.15225 | 36967 ft | 512 kts | 87° |
| 2026-04-25 23:56 | 39.88642 | -85.05935 | 36968 ft | 513 kts | 87° |
| 2026-04-25 23:56 | 39.89098 | -84.96630 | 36972 ft | 514 kts | 88° |
| 2026-04-25 23:57 | 39.89547 | -84.87348 | 36976 ft | 514 kts | 88° |
| 2026-04-25 23:57 | 39.89987 | -84.78069 | 36980 ft | 515 kts | 88° |
| 2026-04-25 23:58 | 39.90421 | -84.68752 | 36982 ft | 516 kts | 88° |
| 2026-04-25 23:58 | 39.90848 | -84.59441 | 36980 ft | 516 kts | 88° |
| 2026-04-25 23:59 | 39.91268 | -84.50129 | 36980 ft | 516 kts | 88° |
| 2026-04-25 23:59 | 39.91680 | -84.40790 | 36979 ft | 516 kts | 88° |
| 2026-04-26 00:00 | 39.92090 | -84.31365 | 36979 ft | 516 kts | 89° |
| 2026-04-26 00:00 | 39.92487 | -84.22047 | 36974 ft | 517 kts | 89° |
| 2026-04-26 00:01 | 39.92879 | -84.12644 | 36973 ft | 517 kts | 89° |
| 2026-04-26 00:01 | 39.93260 | -84.03348 | 36973 ft | 517 kts | 89° |
| 2026-04-26 00:02 | 39.93636 | -83.93967 | 36973 ft | 518 kts | 89° |
| 2026-04-26 00:02 | 39.94006 | -83.84560 | 36970 ft | 518 kts | 89° |
| 2026-04-26 00:03 | 39.94365 | -83.75248 | 36970 ft | 518 kts | 89° |
| 2026-04-26 00:03 | 39.94720 | -83.65823 | 36976 ft | 517 kts | 89° |
| 2026-04-26 00:04 | 39.95065 | -83.56463 | 36983 ft | 517 kts | 89° |
| 2026-04-26 00:04 | 39.95403 | -83.47114 | 36990 ft | 517 kts | 89° |
| 2026-04-26 00:05 | 39.95732 | -83.37761 | 36996 ft | 518 kts | 89° |
| 2026-04-26 00:05 | 39.96054 | -83.28419 | 36996 ft | 518 kts | 90° |
| 2026-04-26 00:06 | 39.96370 | -83.19028 | 36997 ft | 518 kts | 90° |
| 2026-04-26 00:06 | 39.96666 | -83.09656 | 36987 ft | 519 kts | 92° |
| 2026-04-26 00:07 | 39.96256 | -83.00324 | 36975 ft | 516 kts | 98° |
| 2026-04-26 00:07 | 39.95632 | -82.90914 | 36979 ft | 517 kts | 98° |
| 2026-04-26 00:08 | 39.95007 | -82.81558 | 36980 ft | 518 kts | 99° |
| 2026-04-26 00:08 | 39.94375 | -82.72178 | 36984 ft | 518 kts | 99° |
| 2026-04-26 00:09 | 39.93719 | -82.62536 | 36979 ft | 518 kts | 98° |
| 2026-04-26 00:09 | 39.93065 | -82.53017 | 36983 ft | 518 kts | 98° |
| 2026-04-26 00:10 | 39.92411 | -82.43600 | 36986 ft | 517 kts | 97° |
| 2026-04-26 00:10 | 39.91757 | -82.34286 | 36984 ft | 516 kts | 98° |
| 2026-04-26 00:11 | 39.91095 | -82.24977 | 36984 ft | 515 kts | 98° |
| 2026-04-26 00:11 | 39.90427 | -82.15678 | 36984 ft | 515 kts | 98° |
| 2026-04-26 00:12 | 39.89746 | -82.06296 | 36984 ft | 514 kts | 98° |
| 2026-04-26 00:12 | 39.89062 | -81.96981 | 36987 ft | 514 kts | 98° |
| 2026-04-26 00:13 | 39.88377 | -81.87753 | 36990 ft | 514 kts | 98° |
| 2026-04-26 00:13 | 39.87681 | -81.78473 | 36991 ft | 515 kts | 98° |
| 2026-04-26 00:14 | 39.86976 | -81.69215 | 36992 ft | 515 kts | 99° |
| 2026-04-26 00:14 | 39.85408 | -81.60022 | 36985 ft | 507 kts | 113° |
| 2026-04-26 00:15 | 39.82757 | -81.51257 | 36990 ft | 506 kts | 116° |
| 2026-04-26 00:15 | 39.80018 | -81.42384 | 36991 ft | 506 kts | 116° |
| 2026-04-26 00:16 | 39.77282 | -81.33539 | 36991 ft | 507 kts | 117° |
| 2026-04-26 00:16 | 39.74592 | -81.24867 | 36990 ft | 507 kts | 117° |
| 2026-04-26 00:17 | 39.71872 | -81.16117 | 36985 ft | 507 kts | 117° |
| 2026-04-26 00:17 | 39.69184 | -81.07494 | 36980 ft | 508 kts | 117° |
| 2026-04-26 00:18 | 39.66439 | -80.98715 | 36976 ft | 508 kts | 117° |
| 2026-04-26 00:18 | 39.63724 | -80.90054 | 36974 ft | 509 kts | 117° |
| 2026-04-26 00:19 | 39.60951 | -80.81237 | 36972 ft | 509 kts | 117° |
| 2026-04-26 00:19 | 39.58212 | -80.72555 | 36970 ft | 510 kts | 118° |
| 2026-04-26 00:20 | 39.55400 | -80.63670 | 36966 ft | 511 kts | 118° |
| 2026-04-26 00:20 | 39.52636 | -80.54960 | 36963 ft | 511 kts | 118° |
| 2026-04-26 00:21 | 39.49779 | -80.45991 | 36961 ft | 511 kts | 118° |
| 2026-04-26 00:21 | 39.46869 | -80.36880 | 36962 ft | 511 kts | 118° |
| 2026-04-26 00:22 | 39.43992 | -80.27904 | 36963 ft | 511 kts | 119° |
| 2026-04-26 00:22 | 39.41075 | -80.18832 | 36631 ft | 508 kts | 119° |
| 2026-04-26 00:22 | 39.39611 | -80.14287 | 36062 ft | 502 kts | 119° |
| 2026-04-26 00:23 | 39.38174 | -80.09831 | 35438 ft | 498 kts | 119° |
| 2026-04-26 00:23 | 39.36755 | -80.05440 | 34783 ft | 495 kts | 119° |
| 2026-04-26 00:23 | 39.35371 | -80.01169 | 34023 ft | 492 kts | 120° |
| 2026-04-26 00:23 | 39.33918 | -79.96687 | 33220 ft | 488 kts | 120° |
| 2026-04-26 00:24 | 39.32543 | -79.92451 | 32544 ft | 481 kts | 120° |
| 2026-04-26 00:24 | 39.31104 | -79.88026 | 31827 ft | 477 kts | 120° |
| 2026-04-26 00:24 | 39.29889 | -79.83639 | 31079 ft | 485 kts | 112° |
| 2026-04-26 00:24 | 39.29116 | -79.78961 | 30527 ft | 494 kts | 103° |
| 2026-04-26 00:25 | 39.28696 | -79.74077 | 30151 ft | 497 kts | 101° |
| 2026-04-26 00:25 | 39.28295 | -79.69167 | 29713 ft | 503 kts | 100° |
| 2026-04-26 00:25 | 39.27906 | -79.64410 | 29244 ft | 507 kts | 100° |
| 2026-04-26 00:25 | 39.27511 | -79.59599 | 28768 ft | 503 kts | 100° |
| 2026-04-26 00:26 | 39.27121 | -79.54829 | 28316 ft | 499 kts | 99° |
| 2026-04-26 00:26 | 39.26711 | -79.49816 | 27811 ft | 496 kts | 99° |
| 2026-04-26 00:26 | 39.26321 | -79.45039 | 27353 ft | 491 kts | 99° |
| 2026-04-26 00:26 | 39.25914 | -79.40134 | 26866 ft | 483 kts | 99° |
| 2026-04-26 00:27 | 39.25502 | -79.35155 | 26379 ft | 472 kts | 99° |
| 2026-04-26 00:27 | 39.25132 | -79.30684 | 25948 ft | 460 kts | 99° |
| 2026-04-26 00:27 | 39.24769 | -79.26318 | 25528 ft | 451 kts | 99° |
| 2026-04-26 00:27 | 39.24396 | -79.21875 | 25100 ft | 445 kts | 99° |
| 2026-04-26 00:28 | 39.24021 | -79.17465 | 24659 ft | 441 kts | 99° |
| 2026-04-26 00:28 | 39.23681 | -79.13494 | 24289 ft | 437 kts | 98° |
| 2026-04-26 00:28 | 39.23346 | -79.09590 | 23919 ft | 435 kts | 98° |
| 2026-04-26 00:28 | 39.22983 | -79.05379 | 23522 ft | 432 kts | 98° |
| 2026-04-26 00:29 | 39.22649 | -79.01511 | 23162 ft | 429 kts | 98° |
| 2026-04-26 00:29 | 39.22315 | -78.97663 | 22783 ft | 426 kts | 98° |
| 2026-04-26 00:29 | 39.21967 | -78.93868 | 22426 ft | 422 kts | 98° |
| 2026-04-26 00:29 | 39.21595 | -78.90019 | 22058 ft | 420 kts | 98° |
| 2026-04-26 00:30 | 39.21216 | -78.86209 | 21918 ft | 415 kts | 98° |
| 2026-04-26 00:30 | 39.20863 | -78.82482 | 21939 ft | 416 kts | 97° |
| 2026-04-26 00:30 | 39.20515 | -78.78712 | 21955 ft | 418 kts | 97° |
| 2026-04-26 00:30 | 39.20166 | -78.74939 | 21964 ft | 419 kts | 97° |
| 2026-04-26 00:31 | 39.19807 | -78.71157 | 21914 ft | 423 kts | 98° |
| 2026-04-26 00:31 | 39.19393 | -78.67031 | 21461 ft | 424 kts | 98° |
| 2026-04-26 00:31 | 39.19007 | -78.63190 | 20900 ft | 419 kts | 98° |
| 2026-04-26 00:31 | 39.18634 | -78.59483 | 20354 ft | 414 kts | 98° |
| 2026-04-26 00:32 | 39.18263 | -78.55798 | 19775 ft | 408 kts | 98° |
| 2026-04-26 00:32 | 39.17902 | -78.52216 | 19254 ft | 402 kts | 98° |
| 2026-04-26 00:32 | 39.17189 | -78.45163 | 18200 ft | 390 kts | 98° |
| 2026-04-26 00:33 | 39.16835 | -78.41666 | 17680 ft | 385 kts | 98° |
| 2026-04-26 00:33 | 39.16487 | -78.38234 | 17170 ft | 384 kts | 98° |
| 2026-04-26 00:33 | 39.15945 | -78.34747 | 16652 ft | 381 kts | 108° |
| 2026-04-26 00:33 | 39.15117 | -78.31421 | 16371 ft | 375 kts | 110° |
| 2026-04-26 00:34 | 39.14259 | -78.28027 | 16024 ft | 378 kts | 109° |
| 2026-04-26 00:34 | 39.13399 | -78.24615 | 15671 ft | 375 kts | 109° |
| 2026-04-26 00:34 | 39.12562 | -78.21294 | 15319 ft | 373 kts | 109° |
| 2026-04-26 00:34 | 39.11737 | -78.18017 | 14973 ft | 370 kts | 109° |
| 2026-04-26 00:35 | 39.10936 | -78.14832 | 14638 ft | 368 kts | 109° |
| 2026-04-26 00:35 | 39.10138 | -78.11661 | 14344 ft | 366 kts | 109° |
| 2026-04-26 00:35 | 39.09322 | -78.08468 | 13989 ft | 364 kts | 110° |
| 2026-04-26 00:35 | 39.08489 | -78.05220 | 13650 ft | 361 kts | 110° |
| 2026-04-26 00:36 | 39.07674 | -78.02049 | 13312 ft | 359 kts | 110° |
| 2026-04-26 00:36 | 39.06865 | -77.98904 | 12983 ft | 357 kts | 110° |
| 2026-04-26 00:36 | 39.06053 | -77.95743 | 12645 ft | 355 kts | 110° |
| 2026-04-26 00:36 | 39.05207 | -77.92460 | 12296 ft | 353 kts | 110° |
| 2026-04-26 00:37 | 39.04357 | -77.89162 | 11949 ft | 351 kts | 110° |
| 2026-04-26 00:37 | 39.03528 | -77.85955 | 11611 ft | 349 kts | 110° |
| 2026-04-26 00:37 | 39.02708 | -77.82780 | 11278 ft | 347 kts | 110° |
| 2026-04-26 00:37 | 39.01876 | -77.79561 | 10937 ft | 345 kts | 110° |
| 2026-04-26 00:38 | 39.01046 | -77.76346 | 10603 ft | 339 kts | 110° |
| 2026-04-26 00:38 | 39.00286 | -77.73400 | 10293 ft | 327 kts | 110° |
| 2026-04-26 00:38 | 38.99538 | -77.70505 | 9991 ft | 317 kts | 110° |
| 2026-04-26 00:38 | 38.98801 | -77.67653 | 9692 ft | 307 kts | 110° |
| 2026-04-26 00:39 | 38.98074 | -77.64892 | 9402 ft | 301 kts | 111° |
| 2026-04-26 00:39 | 38.97320 | -77.62206 | 9113 ft | 302 kts | 112° |
| 2026-04-26 00:39 | 38.96549 | -77.59601 | 8836 ft | 302 kts | 112° |
| 2026-04-26 00:39 | 38.95792 | -77.57058 | 8562 ft | 298 kts | 112° |
| 2026-04-26 00:40 | 38.95063 | -77.54594 | 8299 ft | 292 kts | 110° |
| 2026-04-26 00:40 | 38.94674 | -77.52057 | 8046 ft | 288 kts | 89° |
| 2026-04-26 00:40 | 38.95018 | -77.49564 | 8001 ft | 286 kts | 69° |
| 2026-04-26 00:40 | 38.95782 | -77.47187 | 7997 ft | 286 kts | 65° |
| 2026-04-26 00:41 | 38.96566 | -77.44818 | 7994 ft | 286 kts | 66° |
| 2026-04-26 00:41 | 38.97335 | -77.42487 | 7993 ft | 286 kts | 66° |
| 2026-04-26 00:41 | 38.98116 | -77.40127 | 7988 ft | 286 kts | 66° |
| 2026-04-26 00:41 | 38.98898 | -77.37766 | 7991 ft | 286 kts | 66° |
| 2026-04-26 00:42 | 38.99670 | -77.35435 | 7992 ft | 286 kts | 66° |
| 2026-04-26 00:42 | 39.00374 | -77.33015 | 7989 ft | 286 kts | 76° |
| 2026-04-26 00:42 | 39.00941 | -77.30544 | 7896 ft | 289 kts | 69° |
| 2026-04-26 00:42 | 39.01738 | -77.28067 | 7474 ft | 291 kts | 67° |
| 2026-04-26 00:43 | 39.02546 | -77.25645 | 7040 ft | 289 kts | 66° |
| 2026-04-26 00:43 | 39.03348 | -77.23248 | 6606 ft | 287 kts | 66° |
| 2026-04-26 00:43 | 39.04147 | -77.20867 | 6183 ft | 284 kts | 66° |
| 2026-04-26 00:43 | 39.04933 | -77.18554 | 6010 ft | 273 kts | 66° |
| 2026-04-26 00:44 | 39.05729 | -77.16242 | 6001 ft | 276 kts | 66° |
| 2026-04-26 00:44 | 39.06541 | -77.13919 | 6003 ft | 276 kts | 66° |
| 2026-04-26 00:44 | 39.07348 | -77.11643 | 6001 ft | 276 kts | 67° |
| 2026-04-26 00:44 | 39.08167 | -77.09354 | 6004 ft | 276 kts | 66° |
| 2026-04-26 00:45 | 39.08865 | -77.07003 | 5978 ft | 275 kts | 81° |
| 2026-04-26 00:45 | 39.08791 | -77.04434 | 5259 ft | 280 kts | 114° |
| 2026-04-26 00:45 | 39.07915 | -77.02062 | 4922 ft | 268 kts | 119° |
| 2026-04-26 00:45 | 39.07069 | -76.99808 | 4564 ft | 261 kts | 118° |
| 2026-04-26 00:46 | 39.06235 | -76.97581 | 4207 ft | 254 kts | 118° |
| 2026-04-26 00:46 | 39.05430 | -76.95415 | 3847 ft | 249 kts | 118° |
| 2026-04-26 00:46 | 39.04628 | -76.93268 | 3495 ft | 243 kts | 119° |
| 2026-04-26 00:46 | 39.03839 | -76.91151 | 3159 ft | 237 kts | 118° |
| 2026-04-26 00:47 | 39.03079 | -76.89090 | 2917 ft | 218 kts | 115° |
| 2026-04-26 00:47 | 39.02398 | -76.87174 | 2625 ft | 198 kts | 129° |
| 2026-04-26 00:47 | 39.01141 | -76.86462 | 2490 ft | 199 kts | 175° |
| 2026-04-26 00:47 | 38.99708 | -76.86639 | 2508 ft | 198 kts | 187° |
| 2026-04-26 00:48 | 38.98413 | -76.86958 | 2495 ft | 180 kts | 185° |
| 2026-04-26 00:48 | 38.97153 | -76.87162 | 2493 ft | 177 kts | 180° |
| 2026-04-26 00:48 | 38.95820 | -76.87208 | 2506 ft | 173 kts | 174° |
| 2026-04-26 00:48 | 38.94496 | -76.87172 | 2489 ft | 160 kts | 173° |
| 2026-04-26 00:49 | 38.93235 | -76.87135 | 2449 ft | 159 kts | 174° |
| 2026-04-26 00:49 | 38.91971 | -76.87113 | 2205 ft | 156 kts | 174° |
| 2026-04-26 00:49 | 38.90722 | -76.87106 | 1971 ft | 156 kts | 174° |
| 2026-04-26 00:49 | 38.89557 | -76.87104 | 1758 ft | 148 kts | 175° |
| 2026-04-26 00:50 | 38.88452 | -76.87103 | 1525 ft | 143 kts | 174° |
| 2026-04-26 00:50 | 38.87420 | -76.87109 | 1327 ft | 141 kts | 176° |
| 2026-04-26 00:50 | 38.86407 | -76.87110 | 1133 ft | 138 kts | 176° |
| 2026-04-26 00:50 | 38.85396 | -76.87105 | 937 ft | 132 kts | 176° |
| 2026-04-26 00:51 | 38.84425 | -76.87097 | 747 ft | 127 kts | 176° |
| 2026-04-26 00:51 | 38.83469 | -76.87086 | 552 ft | 126 kts | 177° |
| 2026-04-26 00:51 | 38.82529 | -76.87077 | 384 ft | 132 kts | 177° |
| 2026-04-26 00:51 | 38.81595 | -76.87077 | 270 ft | 116 kts | 179° |
| 2026-04-26 00:52 | 38.80981 | -76.87067 | 266 ft | 25 kts | 189° |
| 2026-04-26 00:52 | 38.80946 | -76.87162 | 266 ft | 0 kts | 269° |
| 2026-04-26 00:52 | 38.80946 | -76.87173 | 266 ft | 3 kts | 272° |
| 2026-04-26 00:52 | 38.80948 | -76.87250 | 266 ft | 16 kts | 270° |
| 2026-04-26 00:53 | 38.80920 | -76.87448 | 268 ft | 26 kts | 214° |
| 2026-04-26 00:53 | 38.80877 | -76.87621 | 272 ft | 11 kts | 193° |
| 2026-04-26 00:53 | 38.80848 | -76.87621 | 272 ft | 0 kts | 180° |